Terminal Aerodrome Forecast
Issued by NWS Cleveland, OH

Home | Current Version | Previous Version | Text Only | Print | Product List | Glossary Off
Versions: 1 2 3 4 5 6 7 8 9 10 11 12 13 14 15 16 17 18 19 20

000
FTUS41 KCLE 270500
TAFYNG
TAF
KYNG 270540Z 2706/2806 16006KT P6SM SCT120 OVC250
     FM270900 32006KT P6SM SCT025 BKN250
      TEMPO 2709/2713 5SM BR BKN025
     FM271300 34006KT P6SM BKN025
     FM271600 35008KT P6SM SCT035 BKN250=

USA.gov is the U.S. government's official web portal to all federal, state and local government web resources and services.